Angel Fire, New Mexico
Current Conditions -  °F | °C
As of 6:55 AM on Monday 22 Dec 2014 (Local Time) from KAXX Reporting Station
Clear Clear  
Wind Chill: -7°   Ceiling: Unl
Heat Index:   Visibility: 10mi
Dew Point: -3°   Wind: 21mph
Humidity: 81%   Direction: 260°W
Pressure: 29.79"   Gusts: 29mph
Location:  36.39°N, 105.29°W
Report Text: KAXX 221355Z AUTO 26018G25KT 10SM CLR 00/M03 A2979 RMK AO2 T00011028
Loading
Personal Weather Stations






























Interactive Weather Map New forecast layout! Learn more

10-Day Weather Forecast

Advertisements
Track Severe Weather on mobile